Time;durP1;ratioP1;P1;durP2;ratioP2;P2;SDS_P1;SDS_P2;PMS_P1;PMS_P2;Temp;Humidity;BMP_temperature;BMP_pressure;BME280_temperature;BME280_humidity;BME280_pressure;Samples;Min_cycle;Max_cycle;Signal;HPM_P1;HPM_P2
2022/06/19 00:02:08;;;;;;;3.70;1.67;;;24.30;62.80;;;;;;10412034;28;20416;-56
2022/06/19 00:07:10;;;;;;;3.45;1.60;;;24.30;62.70;;;;;;10411745;28;20052;-53
2022/06/19 00:12:11;;;;;;;2.65;1.80;;;24.30;62.70;;;;;;10411774;28;20079;-54
2022/06/19 00:17:13;;;;;;;9.45;2.03;;;24.30;62.90;;;;;;10412848;28;20108;-56
2022/06/19 00:22:14;;;;;;;3.30;1.52;;;24.30;62.80;;;;;;10412655;28;20029;-56
2022/06/19 00:27:15;;;;;;;3.80;1.65;;;24.30;62.80;;;;;;10411770;28;20057;-53
2022/06/19 00:32:18;;;;;;;8.80;1.70;;;24.30;62.50;;;;;;10411381;28;20040;-55
2022/06/19 00:37:18;;;;;;;2.45;1.30;;;24.30;62.30;;;;;;10412418;28;20045;-53
2022/06/19 00:42:24;;;;;;;2.70;1.13;;;24.30;62.30;;;;;;10399199;28;20054;-53
2022/06/19 00:47:38;;;;;;;3.40;1.40;;;24.30;62.60;;;;;;10398984;28;20041;-54
2022/06/19 00:52:41;;;;;;;3.60;1.30;;;24.20;62.60;;;;;;10420762;28;20068;-55
2022/06/19 00:57:46;;;;;;;3.03;1.63;;;24.20;62.20;;;;;;10410892;28;20347;-55
2022/06/19 01:02:47;;;;;;;3.35;1.73;;;24.20;62.30;;;;;;10418965;28;20108;-54
2022/06/19 01:07:48;;;;;;;2.40;1.15;;;24.20;62.60;;;;;;10418622;28;20385;-55
2022/06/19 01:12:49;;;;;;;3.75;1.58;;;24.20;63.10;;;;;;10418158;28;20025;-55
2022/06/19 01:17:55;;;;;;;4.82;1.52;;;24.20;62.10;;;;;;10434406;28;20140;-55
2022/06/19 01:23:26;;;;;;;3.78;1.60;;;24.20;62.20;;;;;;10417719;28;20048;-53
2022/06/19 01:28:45;;;;;;;4.07;1.58;;;24.20;62.00;;;;;;10417805;28;20115;-54
2022/06/19 01:34:26;;;;;;;3.85;1.25;;;24.20;61.40;;;;;;10417197;28;20056;-55
2022/06/19 01:39:27;;;;;;;8.45;2.40;;;24.20;62.00;;;;;;10418412;28;20080;-55
2022/06/19 01:44:27;;;;;;;3.90;1.58;;;24.20;61.90;;;;;;10417176;28;20029;-55
2022/06/19 01:49:34;;;;;;;2.90;1.63;;;24.20;61.90;;;;;;10427731;28;20740;-55
2022/06/19 01:54:41;;;;;;;3.72;1.33;;;24.10;61.90;;;;;;10416759;28;20037;-54
2022/06/19 01:59:44;;;;;;;87.93;5.70;;;24.10;61.90;;;;;;10416384;28;20417;-55
2022/06/19 02:04:45;;;;;;;23.90;2.63;;;24.10;61.80;;;;;;10416419;28;20025;-54
2022/06/19 02:09:47;;;;;;;8.60;2.53;;;24.10;61.60;;;;;;10414963;28;20037;-55
2022/06/19 02:14:49;;;;;;;2.85;1.23;;;24.10;61.80;;;;;;10417426;28;20358;-53
2022/06/19 02:19:50;;;;;;;3.92;1.48;;;24.10;61.50;;;;;;10415726;28;20033;-53
2022/06/19 02:24:51;;;;;;;3.75;1.73;;;24.10;61.50;;;;;;10432329;28;20532;-55
2022/06/19 02:29:52;;;;;;;3.42;1.80;;;24.00;61.70;;;;;;10416324;28;20045;-54
2022/06/19 02:34:53;;;;;;;4.75;1.95;;;24.00;61.50;;;;;;10415268;28;20402;-54
2022/06/19 02:40:29;;;;;;;2.17;1.40;;;24.00;61.40;;;;;;10402735;28;20034;-53
2022/06/19 02:45:38;;;;;;;3.03;1.55;;;24.00;61.20;;;;;;10416143;28;20126;-55
2022/06/19 02:50:42;;;;;;;5.32;1.92;;;24.00;61.00;;;;;;10425088;28;20040;-55
2022/06/19 02:55:43;;;;;;;3.08;1.45;;;24.00;60.50;;;;;;10415410;28;20148;-54
2022/06/19 03:00:44;;;;;;;2.65;1.23;;;24.00;60.50;;;;;;10415629;28;20121;-55
2022/06/19 03:05:45;;;;;;;3.80;1.15;;;24.00;61.20;;;;;;10415159;28;20032;-54
2022/06/19 03:10:45;;;;;;;3.42;1.70;;;24.00;60.90;;;;;;10414153;28;20339;-54
2022/06/19 03:15:46;;;;;;;5.35;1.63;;;23.90;60.70;;;;;;10429068;28;20116;-53
2022/06/19 03:20:47;;;;;;;3.72;2.10;;;24.00;60.50;;;;;;10413951;28;20036;-54
2022/06/19 03:25:49;;;;;;;2.97;1.10;;;24.00;59.10;;;;;;10412387;28;20025;-54
2022/06/19 03:30:54;;;;;;;7.35;2.25;;;23.90;60.80;;;;;;10414071;28;20041;-55
2022/06/19 03:35:55;;;;;;;4.32;1.77;;;23.90;60.30;;;;;;10413708;28;20444;-54
2022/06/19 03:40:56;;;;;;;13.10;3.72;;;23.90;59.80;;;;;;10400511;28;20120;-54
2022/06/19 03:46:02;;;;;;;4.47;1.35;;;23.90;59.20;;;;;;10413192;28;20034;-55
2022/06/19 03:51:03;;;;;;;3.88;2.00;;;23.90;58.90;;;;;;10420980;28;20033;-55
2022/06/19 03:56:06;;;;;;;4.82;1.48;;;23.90;60.00;;;;;;10413029;28;20551;-54
2022/06/19 04:01:07;;;;;;;2.72;1.25;;;23.90;58.90;;;;;;10413608;28;20661;-54
2022/06/19 04:06:13;;;;;;;6.80;2.25;;;23.90;59.60;;;;;;10412988;28;20041;-54
2022/06/19 04:11:17;;;;;;;3.92;1.50;;;23.90;58.60;;;;;;10398170;28;20112;-54
2022/06/19 04:16:23;;;;;;;3.40;1.20;;;23.90;59.50;;;;;;10403913;28;20516;-54
2022/06/19 04:21:27;;;;;;;5.00;1.75;;;23.90;58.80;;;;;;10409826;28;20044;-54
2022/06/19 04:26:32;;;;;;;6.97;2.30;;;23.80;59.60;;;;;;10412444;28;20033;-53
2022/06/19 04:31:33;;;;;;;3.33;1.30;;;23.90;59.20;;;;;;10404280;28;20113;-54
2022/06/19 04:36:34;;;;;;;12.27;2.03;;;23.80;59.20;;;;;;10414881;28;20057;-55
2022/06/19 04:41:39;;;;;;;3.17;1.75;;;23.80;58.80;;;;;;10415966;28;20367;-55
2022/06/19 04:46:41;;;;;;;7.65;1.48;;;23.90;59.80;;;;;;10413369;28;20033;-51
2022/06/19 04:51:43;;;;;;;4.95;1.85;;;23.90;60.30;;;;;;10424739;28;20496;-49
2022/06/19 04:56:46;;;;;;;4.05;1.63;;;23.90;60.40;;;;;;10420091;28;20076;-52
2022/06/19 05:01:47;;;;;;;3.65;1.45;;;23.90;60.30;;;;;;10419870;28;20056;-49
2022/06/19 05:06:48;;;;;;;6.30;1.70;;;23.90;59.90;;;;;;10412911;28;20045;-51
2022/06/19 05:11:48;;;;;;;4.82;1.27;;;23.90;60.20;;;;;;10412177;28;20061;-51
2022/06/19 05:16:50;;;;;;;9.50;2.55;;;23.90;59.70;;;;;;10419288;28;20474;-53
2022/06/19 05:21:50;;;;;;;6.15;1.77;;;23.90;59.70;;;;;;10419389;28;20034;-53
2022/06/19 05:26:52;;;;;;;5.55;1.70;;;23.90;59.70;;;;;;10419063;28;20060;-50
2022/06/19 05:31:52;;;;;;;11.35;1.90;;;23.90;59.60;;;;;;10418905;28;20461;-51
2022/06/19 05:36:53;;;;;;;5.63;2.28;;;23.90;59.30;;;;;;10417008;28;20080;-49
2022/06/19 05:41:57;;;;;;;8.30;1.92;;;23.90;59.20;;;;;;10404052;28;20453;-52
2022/06/19 05:46:58;;;;;;;5.90;1.90;;;23.90;59.20;;;;;;10415157;28;20470;-50
2022/06/19 05:51:59;;;;;;;6.28;2.15;;;23.90;59.50;;;;;;10425248;28;20124;-53
2022/06/19 05:57:00;;;;;;;8.15;1.95;;;23.90;59.50;;;;;;10416389;28;20482;-50
2022/06/19 06:02:01;;;;;;;7.18;2.00;;;23.90;59.20;;;;;;10417968;28;20053;-51
2022/06/19 06:07:02;;;;;;;4.95;1.75;;;23.80;59.30;;;;;;10417459;28;20445;-52
2022/06/19 06:12:05;;;;;;;3.67;1.65;;;23.80;59.20;;;;;;10432908;28;20385;-48
2022/06/19 06:17:05;;;;;;;6.35;2.15;;;23.80;59.30;;;;;;10417097;28;20492;-51
2022/06/19 06:22:06;;;;;;;4.78;1.30;;;23.80;59.20;;;;;;10416050;28;20028;-52
2022/06/19 06:27:07;;;;;;;4.95;1.45;;;23.80;59.20;;;;;;10416634;28;20072;-52
2022/06/19 06:32:08;;;;;;;4.85;1.40;;;23.80;59.10;;;;;;10416860;28;20021;-53
2022/06/19 06:37:09;;;;;;;3.78;1.70;;;23.80;59.20;;;;;;10414848;28;20128;-51
2022/06/19 06:42:11;;;;;;;5.40;1.70;;;23.80;59.10;;;;;;10403148;28;20371;-52
2022/06/19 06:47:11;;;;;;;3.95;1.80;;;23.80;59.10;;;;;;10414711;28;20378;-50
2022/06/19 06:52:13;;;;;;;6.95;1.90;;;23.70;59.20;;;;;;10424579;28;20025;-51
2022/06/19 06:57:14;;;;;;;9.15;2.38;;;23.70;58.50;;;;;;10403496;28;20052;-51
2022/06/19 07:02:14;;;;;;;7.88;2.08;;;23.70;57.10;;;;;;10412878;28;20029;-52
2022/06/19 07:07:15;;;;;;;11.32;2.70;;;23.60;54.20;;;;;;10413546;28;20038;-52
2022/06/19 07:12:16;;;;;;;16.20;3.35;;;23.60;53.50;;;;;;10415252;28;20029;-53
2022/06/19 07:17:17;;;;;;;10.40;3.05;;;23.60;54.00;;;;;;10412259;28;20641;-52
2022/06/19 07:22:18;;;;;;;12.80;3.83;;;23.60;55.30;;;;;;10412695;28;20045;-51
2022/06/19 07:27:19;;;;;;;15.30;3.33;;;23.60;56.10;;;;;;10413673;28;20116;-53
2022/06/19 07:32:19;;;;;;;17.38;2.92;;;23.60;56.80;;;;;;10414596;28;20100;-47
2022/06/19 07:37:20;;;;;;;16.90;3.67;;;23.60;57.20;;;;;;10412716;28;20138;-47
2022/06/19 07:42:21;;;;;;;26.52;4.53;;;23.60;57.50;;;;;;10400520;28;20033;-53
2022/06/19 07:52:47;;;;;;;15.90;4.00;;;23.60;58.20;;;;;;10418334;28;20041;-55
2022/06/19 07:57:49;;;;;;;13.85;3.90;;;23.70;59.00;;;;;;10409591;28;20382;-55
2022/06/19 08:02:52;;;;;;;32.80;4.15;;;23.60;59.00;;;;;;10412114;28;20037;-56
2022/06/19 08:07:54;;;;;;;31.15;5.30;;;23.70;59.50;;;;;;10396130;28;20033;-56
2022/06/19 08:12:55;;;;;;;11.77;3.38;;;23.60;59.40;;;;;;10410965;28;20092;-53
2022/06/19 08:17:56;;;;;;;15.52;3.67;;;23.60;59.90;;;;;;10409972;28;20037;-55
2022/06/19 08:22:57;;;;;;;18.25;2.92;;;23.70;60.20;;;;;;10411541;28;20041;-56
2022/06/19 08:27:58;;;;;;;15.90;3.20;;;23.70;60.00;;;;;;10398685;28;20030;-55
2022/06/19 08:32:59;;;;;;;13.02;2.88;;;23.80;60.80;;;;;;10402509;28;20061;-53
2022/06/19 08:38:06;;;;;;;9.60;2.33;;;23.80;60.60;;;;;;10397952;28;20072;-57
2022/06/19 08:43:35;;;;;;;16.65;2.92;;;23.80;60.70;;;;;;10403276;28;20038;-57
2022/06/19 08:49:13;;;;;;;14.48;3.00;;;23.90;61.00;;;;;;10407668;28;20021;-55
2022/06/19 08:54:32;;;;;;;11.48;3.95;;;23.90;60.30;;;;;;10408951;28;20393;-57
2022/06/19 09:00:20;;;;;;;24.42;4.03;;;24.00;61.00;;;;;;10408894;28;20508;-52
2022/06/19 09:05:45;;;;;;;16.13;3.83;;;24.00;61.10;;;;;;10407908;28;20116;-55
2022/06/19 09:10:49;;;;;;;20.35;7.30;;;23.90;61.60;;;;;;10412149;28;20502;-57
2022/06/19 09:16:06;;;;;;;16.38;9.88;;;24.00;61.80;;;;;;10408621;28;20442;-56
2022/06/19 09:22:02;;;;;;;16.75;13.43;;;24.00;61.70;;;;;;10415423;28;20033;-56
2022/06/19 09:27:03;;;;;;;17.67;14.40;;;24.00;61.80;;;;;;10409484;28;20482;-57
2022/06/19 09:32:56;;;;;;;32.08;26.60;;;24.00;61.70;;;;;;10411467;28;20079;-56
2022/06/19 09:38:17;;;;;;;33.35;29.67;;;24.10;63.70;;;;;;10418542;28;20490;-56
2022/06/19 09:43:52;;;;;;;22.13;19.23;;;24.20;65.10;;;;;;10418313;28;20033;-57
2022/06/19 09:49:08;;;;;;;15.20;11.38;;;24.30;63.40;;;;;;10418246;28;20091;-56
2022/06/19 09:54:25;;;;;;;19.75;9.70;;;24.10;62.10;;;;;;10416618;28;20026;-55
2022/06/19 09:59:51;;;;;;;26.58;7.47;;;24.00;61.50;;;;;;10413439;28;20038;-49
2022/06/19 10:05:12;;;;;;;22.83;7.20;;;24.00;61.30;;;;;;10415787;28;20056;-57
2022/06/19 10:10:33;;;;;;;10.70;3.53;;;23.90;61.10;;;;;;10416073;28;20040;-53
2022/06/19 10:15:36;;;;;;;10.65;4.22;;;23.90;59.20;;;;;;10415974;28;20104;-57
2022/06/19 10:20:58;;;;;;;26.40;8.95;;;23.90;58.70;;;;;;10415738;28;20517;-53
2022/06/19 10:26:20;;;;;;;15.65;4.78;;;23.80;57.30;;;;;;10428193;28;20044;-61
2022/06/19 10:32:01;;;;;;;11.95;5.60;;;23.70;55.80;;;;;;10406977;28;20018;-61
2022/06/19 10:37:37;;;;;;;17.50;4.88;;;23.70;55.70;;;;;;10411874;28;20041;-61
2022/06/19 10:43:08;;;;;;;6.63;3.03;;;23.70;55.10;;;;;;10407140;28;20053;-62
2022/06/19 10:48:55;;;;;;;5.85;2.58;;;23.60;55.40;;;;;;10414832;28;20547;-61
2022/06/19 10:54:23;;;;;;;5.45;2.00;;;23.60;55.30;;;;;;10397582;28;20033;-59
2022/06/19 10:59:26;;;;;;;5.55;2.55;;;23.60;55.50;;;;;;10412775;28;20045;-59
2022/06/19 11:04:34;;;;;;;8.52;2.70;;;23.60;55.60;;;;;;10413067;28;20343;-59
2022/06/19 11:09:49;;;;;;;8.00;2.93;;;23.60;56.20;;;;;;10413774;28;20033;-59
2022/06/19 11:14:56;;;;;;;7.50;2.55;;;23.60;56.60;;;;;;10415013;28;20040;-59
2022/06/19 11:19:57;;;;;;;6.43;2.95;;;23.60;55.40;;;;;;10413308;28;20029;-58
2022/06/19 11:25:19;;;;;;;4.97;2.30;;;23.50;55.50;;;;;;10414828;28;20405;-59
2022/06/19 11:30:41;;;;;;;6.97;2.53;;;23.50;55.70;;;;;;10413853;28;20104;-59
2022/06/19 11:35:56;;;;;;;12.57;3.50;;;23.40;56.30;;;;;;10408837;28;20180;-58
2022/06/19 11:40:57;;;;;;;9.15;2.78;;;23.40;57.00;;;;;;10412588;28;20064;-58
2022/06/19 11:46:04;;;;;;;11.18;3.05;;;23.40;55.90;;;;;;10412877;28;20543;-58
2022/06/19 11:51:20;;;;;;;7.80;2.00;;;23.40;55.50;;;;;;10416756;28;20035;-58
2022/06/19 11:56:34;;;;;;;8.93;2.65;;;23.30;55.00;;;;;;10413265;28;20025;-58
2022/06/19 12:01:43;;;;;;;6.38;2.75;;;23.30;55.10;;;;;;10411895;28;20041;-58
2022/06/19 12:06:56;;;;;;;9.68;2.92;;;23.40;55.30;;;;;;10411872;28;20033;-58
2022/06/19 12:12:18;;;;;;;11.02;2.85;;;23.30;55.30;;;;;;10411549;28;20040;-58
2022/06/19 12:17:30;;;;;;;7.90;2.30;;;23.30;55.70;;;;;;10411633;28;20040;-58
2022/06/19 12:22:47;;;;;;;7.35;3.45;;;23.30;56.10;;;;;;10412703;28;20084;-58
2022/06/19 12:28:12;;;;;;;5.82;2.03;;;23.30;56.40;;;;;;10411665;28;20112;-58
2022/06/19 12:33:28;;;;;;;5.25;2.03;;;23.30;56.50;;;;;;10401514;28;20068;-58
2022/06/19 12:38:32;;;;;;;5.43;2.25;;;23.30;56.80;;;;;;10412283;28;20092;-59
2022/06/19 12:44:00;;;;;;;5.18;1.83;;;23.30;56.90;;;;;;10412166;28;20033;-58
2022/06/19 12:49:41;;;;;;;5.00;2.35;;;23.30;57.10;;;;;;10414979;28;20527;-59
2022/06/19 12:55:09;;;;;;;9.20;1.60;;;23.40;57.40;;;;;;10412223;28;20393;-59
2022/06/19 13:00:31;;;;;;;8.82;1.92;;;23.40;57.70;;;;;;10420234;28;20363;-58
2022/06/19 13:05:49;;;;;;;7.57;2.30;;;23.40;57.70;;;;;;10418625;28;20029;-59
2022/06/19 13:11:25;;;;;;;6.63;2.10;;;23.40;57.70;;;;;;10418462;28;20032;-59
2022/06/19 13:16:57;;;;;;;4.65;1.60;;;23.40;57.90;;;;;;10417832;28;20045;-58
2022/06/19 13:22:32;;;;;;;4.90;2.15;;;23.40;58.00;;;;;;10418963;28;20037;-58
2022/06/19 13:27:41;;;;;;;4.90;1.80;;;23.30;58.10;;;;;;10416992;28;20029;-58
2022/06/19 13:33:20;;;;;;;3.63;1.70;;;23.40;58.30;;;;;;10419022;28;20100;-58
2022/06/19 13:38:30;;;;;;;5.15;1.40;;;23.30;58.30;;;;;;10418755;28;20065;-58
2022/06/19 13:43:43;;;;;;;3.53;1.33;;;23.30;58.40;;;;;;10418613;28;20021;-58
2022/06/19 13:49:12;;;;;;;4.38;1.48;;;23.30;58.60;;;;;;10421326;28;20048;-58
2022/06/19 13:54:32;;;;;;;5.88;1.73;;;23.30;58.60;;;;;;10416750;28;20021;-58
2022/06/19 14:00:15;;;;;;;5.03;2.22;;;23.30;58.70;;;;;;10417022;28;20087;-57
2022/06/19 14:05:37;;;;;;;5.03;2.25;;;23.30;58.90;;;;;;10417336;28;20072;-57
2022/06/19 14:10:46;;;;;;;5.57;1.75;;;23.30;58.80;;;;;;10416388;28;20037;-57
2022/06/19 14:16:12;;;;;;;;;;;23.30;58.90;;;;;;10416262;28;20113;-58
2022/06/19 14:22:09;;;;;;;25.25;3.03;;;23.30;59.10;;;;;;10416139;28;19995;-57
2022/06/19 14:27:40;;;;;;;17.80;2.80;;;23.30;59.50;;;;;;10416177;28;20034;-58
2022/06/19 14:32:43;;;;;;;12.45;2.70;;;23.30;59.90;;;;;;10416587;28;20037;-58
2022/06/19 14:37:55;;;;;;;19.83;3.38;;;23.30;60.70;;;;;;10416668;28;20057;-58
2022/06/19 14:43:11;;;;;;;16.98;2.90;;;23.30;61.20;;;;;;10416309;28;20485;-57
2022/06/19 14:48:39;;;;;;;8.18;2.45;;;23.30;61.20;;;;;;10419020;28;20040;-58
2022/06/19 14:54:01;;;;;;;14.15;2.83;;;23.30;61.20;;;;;;10414369;28;20032;-58
2022/06/19 14:59:12;;;;;;;18.25;2.60;;;23.30;61.20;;;;;;10415988;28;20045;-58
2022/06/19 15:04:20;;;;;;;21.13;3.80;;;23.30;61.60;;;;;;10413372;28;20038;-58
2022/06/19 15:09:45;;;;;;;22.27;4.28;;;23.30;61.60;;;;;;10413522;28;20116;-58
2022/06/19 15:14:53;;;;;;;15.65;2.60;;;23.30;61.60;;;;;;10397741;28;20481;-58
2022/06/19 15:19:54;;;;;;;34.33;4.25;;;23.30;61.60;;;;;;10414336;28;20037;-58
2022/06/19 15:24:55;;;;;;;17.23;2.72;;;23.30;61.80;;;;;;10414264;28;20032;-59
2022/06/19 15:29:56;;;;;;;17.45;3.38;;;23.30;61.80;;;;;;10413906;28;20042;-59
2022/06/19 15:35:35;;;;;;;11.05;5.13;;;23.20;61.30;;;;;;10413683;28;20468;-58
2022/06/19 15:40:43;;;;;;;12.57;2.13;;;23.20;61.00;;;;;;10413102;28;20072;-58
2022/06/19 15:46:06;;;;;;;13.80;2.97;;;23.30;61.20;;;;;;10409366;28;20095;-57
2022/06/19 15:51:30;;;;;;;10.68;3.05;;;23.20;61.50;;;;;;10416616;28;20159;-58
2022/06/19 15:56:48;;;;;;;17.17;2.47;;;23.20;61.40;;;;;;10398696;28;20040;-57
2022/06/19 16:02:15;;;;;;;9.95;2.53;;;23.20;61.50;;;;;;10391985;28;20025;-57
2022/06/19 16:07:46;;;;;;;11.52;3.08;;;23.20;61.20;;;;;;10393313;28;20095;-57
2022/06/19 16:13:07;;;;;;;6.20;2.33;;;23.20;61.40;;;;;;10390192;28;20053;-57
2022/06/19 16:18:27;;;;;;;7.25;2.13;;;23.20;62.20;;;;;;10413073;28;20117;-57
2022/06/19 16:23:42;;;;;;;6.80;1.88;;;23.30;63.80;;;;;;10410756;28;20022;-58
2022/06/19 16:28:44;;;;;;;12.07;2.13;;;23.30;64.40;;;;;;10412657;28;20440;-58
2022/06/19 16:33:50;;;;;;;7.10;1.73;;;23.30;64.40;;;;;;10419621;28;20044;-59
2022/06/19 16:44:39;;;;;;;4.32;1.52;;;23.30;64.30;;;;;;10420844;28;20042;-59
2022/06/19 16:49:54;;;;;;;;;;;23.30;64.00;;;;;;10424559;28;20033;-59
2022/06/19 16:55:00;;;;;;;10.48;1.73;;;23.20;64.10;;;;;;10420392;28;19959;-60
2022/06/19 17:00:15;;;;;;;8.65;2.17;;;23.20;64.20;;;;;;10419187;28;20104;-58
2022/06/19 17:05:16;;;;;;;3.38;1.40;;;23.20;64.20;;;;;;10403698;28;20025;-60
2022/06/19 17:10:19;;;;;;;5.97;1.80;;;23.20;63.80;;;;;;10418174;28;20091;-59
2022/06/19 17:15:20;;;;;;;6.88;1.90;;;23.20;63.90;;;;;;10418785;28;20441;-59
2022/06/19 17:20:36;;;;;;;6.03;1.80;;;23.20;64.00;;;;;;10418029;28;20075;-59
2022/06/19 17:25:37;;;;;;;4.75;1.83;;;23.20;63.80;;;;;;10410190;28;20422;-59
2022/06/19 17:31:09;;;;;;;4.97;2.15;;;23.20;63.60;;;;;;10414918;28;20069;-59
2022/06/19 17:36:19;;;;;;;2.65;1.23;;;23.20;63.30;;;;;;10413817;28;20060;-59
2022/06/19 17:41:47;;;;;;;2.80;1.45;;;23.20;63.10;;;;;;10417789;28;20478;-59
2022/06/19 17:47:21;;;;;;;3.17;0.98;;;23.20;63.20;;;;;;10417315;28;20034;-59
2022/06/19 17:52:31;;;;;;;2.58;1.30;;;23.20;63.00;;;;;;10419839;28;20040;-59
2022/06/19 17:57:44;;;;;;;5.07;1.77;;;23.10;62.90;;;;;;10417025;28;20029;-59
2022/06/19 18:03:02;;;;;;;3.25;1.20;;;23.10;62.90;;;;;;10416350;28;20069;-59
2022/06/19 18:08:10;;;;;;;4.32;1.70;;;23.10;62.90;;;;;;10410679;28;20028;-59
2022/06/19 18:13:45;;;;;;;3.88;1.35;;;23.10;63.00;;;;;;10414240;28;20494;-61
2022/06/19 18:18:47;;;;;;;4.55;1.52;;;23.10;62.90;;;;;;10408194;28;20030;-59
2022/06/19 18:23:57;;;;;;;7.85;2.00;;;23.10;63.20;;;;;;10412144;28;20029;-60
2022/06/19 18:28:59;;;;;;;1.90;1.05;;;23.10;63.30;;;;;;10415497;28;20445;-60
2022/06/19 18:34:00;;;;;;;8.15;1.80;;;23.00;63.30;;;;;;10413368;28;20053;-61
2022/06/19 18:39:00;;;;;;;8.43;1.60;;;23.00;63.30;;;;;;10406367;28;20037;-58
2022/06/19 18:44:01;;;;;;;8.35;1.85;;;23.10;63.00;;;;;;10415519;28;20029;-60
2022/06/19 18:49:09;;;;;;;12.13;1.98;;;23.00;63.30;;;;;;10416814;28;20057;-59
2022/06/19 18:54:11;;;;;;;6.53;1.88;;;23.10;63.70;;;;;;10413308;28;20029;-59
2022/06/19 18:59:14;;;;;;;7.65;2.10;;;23.00;63.90;;;;;;10415042;28;20043;-58
2022/06/19 19:04:15;;;;;;;5.85;2.03;;;23.10;64.10;;;;;;10413812;28;20038;-58
2022/06/19 19:09:47;;;;;;;9.93;2.42;;;23.10;64.30;;;;;;10410153;28;20037;-60
2022/06/19 19:14:50;;;;;;;6.63;2.03;;;23.10;64.60;;;;;;10413681;28;20041;-59
2022/06/19 19:19:52;;;;;;;9.90;5.75;;;23.10;64.70;;;;;;10413213;28;20112;-60
2022/06/19 19:24:55;;;;;;;4.72;3.22;;;23.10;65.40;;;;;;10404664;28;20034;-60
2022/06/19 19:30:05;;;;;;;4.93;2.78;;;23.10;64.90;;;;;;10404530;28;20044;-60
2022/06/19 19:35:07;;;;;;;4.05;2.10;;;23.10;64.60;;;;;;10412469;28;20049;-60
2022/06/19 19:40:17;;;;;;;8.77;3.10;;;23.10;64.30;;;;;;10409490;28;20038;-58
2022/06/19 19:45:18;;;;;;;5.53;2.38;;;23.00;64.20;;;;;;10409705;28;20041;-59
2022/06/19 19:50:27;;;;;;;8.70;3.10;;;23.00;63.70;;;;;;10424035;28;20036;-59
2022/06/19 19:55:28;;;;;;;7.05;2.30;;;23.00;63.60;;;;;;10412003;28;20033;-59
2022/06/19 20:00:29;;;;;;;7.88;2.55;;;23.00;63.60;;;;;;10412496;28;20049;-60
2022/06/19 20:10:50;;;;;;;;;;;23.00;63.30;;;;;;10412510;28;20046;-59
2022/06/19 20:15:51;;;;;;;5.03;2.17;;;23.00;63.30;;;;;;10428453;28;19909;-59
2022/06/19 20:20:52;;;;;;;5.20;2.20;;;22.90;63.20;;;;;;10413202;28;20108;-60
2022/06/19 20:25:52;;;;;;;4.93;2.08;;;22.90;63.30;;;;;;10413059;28;20079;-59
2022/06/19 20:30:54;;;;;;;5.47;1.85;;;22.90;63.20;;;;;;10411371;28;20064;-59
2022/06/19 20:35:56;;;;;;;3.88;1.90;;;22.90;63.10;;;;;;10411011;28;20102;-59
2022/06/19 20:42:21;;;;;;;5.13;2.03;;;22.90;63.10;;;;;;10394963;28;20510;-59
2022/06/19 20:46:21;;;;;;;5.22;1.83;;;22.90;63.00;;;;;;10412433;28;20041;-60
2022/06/19 20:51:27;;;;;;;3.55;1.80;;;22.90;63.20;;;;;;10417040;28;20044;-60
2022/06/19 20:56:28;;;;;;;4.20;2.20;;;22.90;62.90;;;;;;10412134;28;20551;-59
2022/06/19 21:01:29;;;;;;;4.30;1.67;;;22.90;63.00;;;;;;10410523;28;20026;-60
2022/06/19 21:06:30;;;;;;;6.70;1.92;;;22.80;62.80;;;;;;10412074;28;20401;-59
2022/06/19 21:11:31;;;;;;;2.25;1.40;;;22.80;62.80;;;;;;10399027;28;20026;-59
2022/06/19 21:16:36;;;;;;;4.70;1.63;;;22.80;62.90;;;;;;10413498;28;20043;-59
2022/06/19 21:21:44;;;;;;;7.45;2.08;;;22.80;62.90;;;;;;10419810;28;20028;-59
2022/06/19 21:26:46;;;;;;;4.80;1.77;;;22.80;62.70;;;;;;10418012;28;20113;-59
2022/06/19 21:31:47;;;;;;;4.82;1.50;;;22.80;62.70;;;;;;10418162;28;20416;-60
2022/06/19 21:36:48;;;;;;;2.92;1.52;;;22.80;62.60;;;;;;10417338;28;20049;-59
2022/06/19 21:41:51;;;;;;;3.05;1.40;;;22.80;62.70;;;;;;10418915;28;20048;-60
2022/06/19 21:46:52;;;;;;;3.83;1.10;;;22.70;62.70;;;;;;10417023;28;20091;-60
2022/06/19 21:51:53;;;;;;;3.70;1.10;;;22.80;62.60;;;;;;10429796;28;20441;-60
2022/06/19 21:56:54;;;;;;;5.15;1.30;;;22.80;62.40;;;;;;10404784;28;20041;-59
2022/06/19 22:01:57;;;;;;;2.65;1.30;;;22.70;62.20;;;;;;10416847;28;20033;-60
2022/06/19 22:06:58;;;;;;;3.00;1.33;;;22.70;62.40;;;;;;10418150;28;20033;-60
2022/06/19 22:12:17;;;;;;;2.05;1.17;;;22.70;62.50;;;;;;10404591;28;20390;-59
2022/06/19 22:17:18;;;;;;;6.72;1.80;;;22.70;62.60;;;;;;10417689;28;20061;-59
2022/06/19 22:22:21;;;;;;;4.70;1.40;;;22.70;62.30;;;;;;10416351;28;20037;-60
2022/06/19 22:27:28;;;;;;;5.05;1.50;;;22.70;62.10;;;;;;10415786;28;20171;-59
2022/06/19 22:32:29;;;;;;;4.07;1.40;;;22.70;62.20;;;;;;10416278;28;20021;-60
2022/06/19 22:37:30;;;;;;;3.25;1.38;;;22.70;62.30;;;;;;10415075;28;20049;-59
2022/06/19 22:42:35;;;;;;;3.22;1.38;;;22.70;62.50;;;;;;10415266;28;20393;-60
2022/06/19 22:47:36;;;;;;;2.70;1.13;;;22.70;62.50;;;;;;10415361;28;20370;-59
2022/06/19 22:52:38;;;;;;;3.80;1.80;;;22.70;62.40;;;;;;10426715;28;20026;-59
2022/06/19 22:57:45;;;;;;;5.07;1.38;;;22.70;62.20;;;;;;10416232;28;20029;-59
2022/06/19 23:02:48;;;;;;;3.00;1.10;;;22.60;62.10;;;;;;10414643;28;20036;-59
2022/06/19 23:07:49;;;;;;;3.97;1.63;;;22.70;62.20;;;;;;10415744;28;20037;-60
2022/06/19 23:12:50;;;;;;;1.67;1.00;;;22.60;62.20;;;;;;10415249;28;20112;-60
2022/06/19 23:17:52;;;;;;;2.25;1.00;;;22.60;62.20;;;;;;10414168;28;20104;-60
2022/06/19 23:22:55;;;;;;;3.28;1.20;;;22.60;62.20;;;;;;10413719;28;20495;-60
2022/06/19 23:27:58;;;;;;;4.45;1.52;;;22.60;62.20;;;;;;10397667;28;20029;-59
2022/06/19 23:32:58;;;;;;;2.47;0.95;;;22.60;62.20;;;;;;10413299;28;20042;-60
2022/06/19 23:37:59;;;;;;;2.42;1.00;;;22.50;62.10;;;;;;10413701;28;20501;-60
2022/06/19 23:43:00;;;;;;;4.15;1.42;;;22.50;62.10;;;;;;10413985;28;20045;-59
2022/06/19 23:48:01;;;;;;;3.08;1.60;;;22.60;62.20;;;;;;10398977;28;20026;-60
2022/06/19 23:53:03;;;;;;;1.65;1.20;;;22.50;62.10;;;;;;10423196;28;20034;-60
2022/06/19 23:58:11;;;;;;;3.05;0.98;;;22.50;62.10;;;;;;10412914;28;20029;-60
